»·PEaware :: N2494V KPHX-KNYL

N2494V :: KPHX-KNYL

FLIGHT INFORMATION

Flight Status: Arrived
Operator: Privately registered:
United States
More flights under this callsign
Pilot: Sally S. (18014)
Aircraft: Unknown
(DA62)
More flights by this aircraft type
Origin: KPHX Phoenix Sky Harbor Intl
United States
Destination: KNYL Yuma MCAS/Yuma Intl
United States
More flights between these airports :: More routes between these airports
Route: +GBN V66 BZA
File this flight plan on PilotEdge
Remarks:
Altitude:
(Current/Filed)
11,000ft
Speed:
(Current/Filed)
160kts
Departed: 13-Apr-18 12:50 PM
Arrived: 13-Apr-18 01:47 PM
Distance/Time
Traveled:
139nm/0:57
Distance/Time
To Go:
Arrived

Flight Plot

Page will automatically refresh every two minutes.

Flight plan parsing failed; only flown route is shown


Map Options




Map Legend


Flown Route
Filed Route
Departure Airport
Arrival Airport
Navaid (VOR, NDB)
Fix

Horizontal Profiles

Position Reports

Time Latitude Longitude Heading Altitude Ground
Speed
13-Apr-18 12:24 33.426473 -112.019451 270 1138ft 0kts
13-Apr-18 12:25 33.426473 -112.019451 270 1138ft 0kts
13-Apr-18 12:26 33.426473 -112.019451 270 1138ft 0kts
13-Apr-18 12:27 33.426473 -112.019451 270 1138ft 0kts
13-Apr-18 12:28 33.426473 -112.019451 270 1138ft 0kts
13-Apr-18 12:29 33.426473 -112.019451 270 1138ft 0kts
13-Apr-18 12:30 33.426473 -112.019451 270 1138ft 0kts
13-Apr-18 12:31 33.426473 -112.019451 270 1138ft 0kts
13-Apr-18 12:32 33.426473 -112.019451 270 1138ft 0kts
13-Apr-18 12:33 33.426473 -112.019451 270 1138ft 0kts
13-Apr-18 12:34 33.426473 -112.019451 270 1138ft 0kts
13-Apr-18 12:35 33.426473 -112.019451 270 1138ft 0kts
13-Apr-18 12:36 33.426473 -112.019451 270 1138ft 0kts
13-Apr-18 12:37 33.426473 -112.019451 270 1138ft 0kts
13-Apr-18 12:38 33.426473 -112.019451 270 1138ft 0kts
13-Apr-18 12:39 33.426473 -112.019451 270 1138ft 0kts
13-Apr-18 12:40 33.426473 -112.019451 270 1138ft 0kts
13-Apr-18 12:41 33.426473 -112.019451 270 1138ft 0kts
13-Apr-18 12:42 33.426473 -112.019451 270 1138ft 0kts
13-Apr-18 12:43 33.427610 -112.018623 56 1138ft 7kts
13-Apr-18 12:44 33.427764 -112.013116 90 1138ft 19kts
13-Apr-18 12:45 33.427761 -112.007388 88 1138ft 17kts
13-Apr-18 12:46 33.427961 -112.005362 8 1138ft 0kts
13-Apr-18 12:47 33.427961 -112.005362 8 1138ft 0kts
13-Apr-18 12:48 33.427990 -112.005355 11 1138ft 2kts
13-Apr-18 12:49 33.428594 -112.023069 264 1438ft 103kts
13-Apr-18 12:50 33.417359 -112.052468 239 2874ft 100kts
13-Apr-18 12:51 33.403481 -112.080893 239 4097ft 102kts
13-Apr-18 12:52 33.387781 -112.113746 240 5002ft 120kts
13-Apr-18 12:53 33.371292 -112.148959 240 6034ft 122kts
13-Apr-18 12:54 33.354627 -112.184559 240 7044ft 124kts
13-Apr-18 12:55 33.336776 -112.222700 240 7862ft 134kts
13-Apr-18 12:56 33.312511 -112.256354 222 8735ft 136kts
13-Apr-18 12:57 33.284851 -112.287497 223 9596ft 138kts
13-Apr-18 12:58 33.255672 -112.321353 224 10015ft 163kts
13-Apr-18 12:59 33.221575 -112.361457 224 10010ft 177kts
13-Apr-18 13:00 33.186205 -112.403106 224 10009ft 179kts
13-Apr-18 13:01 33.150745 -112.445049 224 10009ft 180kts
13-Apr-18 13:02 33.114475 -112.487897 224 9823ft 183kts
13-Apr-18 13:03 33.078695 -112.530116 224 9825ft 180kts
13-Apr-18 13:04 33.043099 -112.572065 224 9797ft 181kts
13-Apr-18 13:05 33.007271 -112.614237 224 9780ft 180kts
13-Apr-18 13:06 32.972201 -112.655471 224 9780ft 179kts
13-Apr-18 13:07 32.952026 -112.707198 259 9780ft 179kts
13-Apr-18 13:08 32.943856 -112.765952 260 9780ft 179kts
13-Apr-18 13:09 32.935942 -112.824476 260 9780ft 179kts
13-Apr-18 13:10 32.927990 -112.883322 260 9780ft 179kts
13-Apr-18 13:11 32.920037 -112.941985 260 9780ft 179kts
13-Apr-18 13:12 32.912056 -113.000645 260 9780ft 179kts
13-Apr-18 13:13 32.904044 -113.059318 260 9780ft 179kts
13-Apr-18 13:14 32.896181 -113.116697 260 9780ft 179kts
13-Apr-18 13:15 32.888127 -113.175254 260 9780ft 179kts
13-Apr-18 13:16 32.880027 -113.233935 260 9780ft 179kts
13-Apr-18 13:17 32.871906 -113.292558 260 9780ft 179kts
13-Apr-18 13:18 32.863755 -113.351187 260 9780ft 179kts
13-Apr-18 13:19 32.855582 -113.409777 260 9780ft 179kts
13-Apr-18 13:20 32.847373 -113.468425 260 9780ft 179kts
13-Apr-18 13:21 32.839129 -113.527101 260 9780ft 179kts
13-Apr-18 13:22 32.830896 -113.585622 261 9780ft 179kts
13-Apr-18 13:23 32.822818 -113.644175 261 9780ft 179kts
13-Apr-18 13:24 32.814741 -113.701294 260 9780ft 179kts
13-Apr-18 13:25 32.806335 -113.760336 260 9716ft 180kts
13-Apr-18 13:26 32.797950 -113.818993 260 9716ft 179kts
13-Apr-18 13:27 32.789547 -113.877588 260 9716ft 179kts
13-Apr-18 13:28 32.783101 -113.936360 269 9591ft 184kts
13-Apr-18 13:29 32.783212 -113.997686 270 8838ft 186kts
13-Apr-18 13:30 32.783389 -114.057561 270 8034ft 179kts
13-Apr-18 13:31 32.783574 -114.116280 270 7233ft 177kts
13-Apr-18 13:32 32.783778 -114.174401 270 6432ft 175kts
13-Apr-18 13:33 32.783997 -114.231963 270 5633ft 174kts
13-Apr-18 13:34 32.780128 -114.288198 234 4821ft 173kts
13-Apr-18 13:35 32.749895 -114.332176 230 4022ft 171kts
13-Apr-18 13:36 32.720891 -114.373756 230 3712ft 151kts
13-Apr-18 13:37 32.695143 -114.410634 230 3715ft 141kts
13-Apr-18 13:38 32.669913 -114.446749 230 3716ft 142kts
13-Apr-18 13:39 32.644652 -114.482908 230 3716ft 142kts
13-Apr-18 13:40 32.619315 -114.519174 230 3716ft 142kts
13-Apr-18 13:41 32.593909 -114.555543 230 3632ft 148kts
13-Apr-18 13:42 32.589148 -114.594264 308 2701ft 115kts
13-Apr-18 13:43 32.615902 -114.602583 356 1446ft 91kts
13-Apr-18 13:44 32.641324 -114.603514 358 592ft 97kts
13-Apr-18 13:45 32.662481 -114.603954 356 216ft 45kts
13-Apr-18 13:46 32.665019 -114.605493 201 216ft 6kts
13-Apr-18 13:47 32.663574 -114.606471 241 216ft 6kts
13-Apr-18 13:48 32.662970 -114.606935 89 216ft 0kts

Navigation Log

Ident Type
Flight plan parsing failed, navigation log unavailable